Time;durP1;ratioP1;P1;durP2;ratioP2;P2;SDS_P1;SDS_P2;PMS_P1;PMS_P2;Temp;Humidity;BMP_temperature;BMP_pressure;BME280_temperature;BME280_humidity;BME280_pressure;Samples;Min_cycle;Max_cycle;Signal;HPM_P1;HPM_P2
2022/01/16 00:04:11;;;;;;;8.50;3.10;;;-7.70;99.90;;;;;;2213785;64;20101;-35
2022/01/16 00:06:45;;;;;;;8.63;2.37;;;-7.70;99.90;;;;;;2213596;64;20149;-34
2022/01/16 00:09:15;;;;;;;7.87;3.00;;;-7.70;99.90;;;;;;2213589;64;20182;-42
2022/01/16 00:11:42;;;;;;;7.60;2.57;;;-7.70;99.90;;;;;;2213415;64;20104;-47
2022/01/16 00:14:09;;;;;;;9.37;2.80;;;-7.70;99.90;;;;;;2213669;64;20548;-34
2022/01/16 00:16:36;;;;;;;8.60;2.83;;;-7.70;99.90;;;;;;2213520;64;20097;-34
2022/01/16 00:19:03;;;;;;;5.33;1.70;;;-7.70;99.90;;;;;;2213383;64;20097;-33
2022/01/16 00:21:32;;;;;;;6.20;2.37;;;-7.70;99.90;;;;;;2213473;64;20085;-34
2022/01/16 00:23:59;;;;;;;8.00;2.30;;;-7.70;99.90;;;;;;2210346;64;20085;-35
2022/01/16 00:26:26;;;;;;;4.63;1.77;;;-7.70;99.90;;;;;;2216111;64;20101;-33
2022/01/16 00:28:53;;;;;;;8.07;2.50;;;-7.70;99.90;;;;;;2216640;64;20092;-34
2022/01/16 00:31:21;;;;;;;9.90;3.57;;;-7.70;99.90;;;;;;2213408;64;20750;-34
2022/01/16 00:33:48;;;;;;;9.47;2.07;;;-7.70;99.90;;;;;;2213586;64;20085;-34
2022/01/16 00:36:18;;;;;;;6.97;2.13;;;-7.70;99.90;;;;;;2216441;64;20156;-35
2022/01/16 00:38:46;;;;;;;6.90;2.27;;;-7.60;99.90;;;;;;2216694;64;20128;-33
2022/01/16 00:41:13;;;;;;;5.27;1.97;;;-7.60;99.90;;;;;;2216633;64;20073;-44
2022/01/16 00:43:40;;;;;;;6.00;1.77;;;-7.60;99.90;;;;;;2213625;64;20089;-34
2022/01/16 00:46:07;;;;;;;7.13;2.73;;;-7.60;99.90;;;;;;2210235;64;20195;-34
2022/01/16 00:48:34;;;;;;;9.57;3.10;;;-7.60;99.90;;;;;;2205986;64;20487;-34
2022/01/16 00:51:01;;;;;;;7.33;1.77;;;-7.60;99.90;;;;;;2216240;64;20084;-38
2022/01/16 00:53:28;;;;;;;5.23;2.23;;;-7.60;99.90;;;;;;2216260;64;20434;-34
2022/01/16 00:55:54;;;;;;;5.07;2.07;;;-7.60;99.90;;;;;;2216220;64;20100;-35
2022/01/16 00:58:24;;;;;;;6.40;2.60;;;-7.60;99.90;;;;;;2216181;64;20115;-34
2022/01/16 01:00:54;;;;;;;5.87;1.90;;;-7.50;99.90;;;;;;2216301;64;20097;-34
2022/01/16 01:03:21;;;;;;;7.50;2.57;;;-7.50;99.90;;;;;;2216499;64;20085;-34
2022/01/16 01:05:48;;;;;;;4.17;1.90;;;-7.50;99.90;;;;;;2216241;64;20085;-33
2022/01/16 01:08:18;;;;;;;7.07;2.37;;;-7.50;99.90;;;;;;2213062;64;20476;-42
2022/01/16 01:10:49;;;;;;;9.43;1.90;;;-7.50;99.90;;;;;;2213098;64;20093;-42
2022/01/16 01:13:43;;;;;;;6.03;1.83;;;-7.50;99.90;;;;;;2210090;64;20651;-38
2022/01/16 01:16:16;;;;;;;5.23;2.57;;;-7.50;99.90;;;;;;2216287;64;20473;-35
2022/01/16 01:18:44;;;;;;;6.10;1.70;;;-7.50;99.90;;;;;;2213169;64;20115;-34
2022/01/16 01:21:24;;;;;;;4.83;1.73;;;-7.50;99.90;;;;;;2216489;64;20108;-34
2022/01/16 01:23:51;;;;;;;7.33;2.20;;;-7.50;99.90;;;;;;2210306;64;20480;-34
2022/01/16 01:26:19;;;;;;;6.87;2.93;;;-7.50;99.90;;;;;;2215891;64;20099;-36
2022/01/16 01:28:46;;;;;;;4.93;2.03;;;-7.50;99.90;;;;;;2217240;64;20115;-38
2022/01/16 01:31:13;;;;;;;7.97;2.40;;;-7.50;99.90;;;;;;2217227;64;20105;-37
2022/01/16 01:33:39;;;;;;;7.50;2.70;;;-7.50;99.90;;;;;;2217082;64;20095;-34
2022/01/16 01:36:06;;;;;;;7.67;1.97;;;-7.50;99.90;;;;;;2217137;64;20464;-33
2022/01/16 01:38:33;;;;;;;5.67;2.93;;;-7.40;99.90;;;;;;2216873;64;20115;-40
2022/01/16 01:41:00;;;;;;;9.83;3.47;;;-7.40;99.90;;;;;;2216972;64;20085;-34
2022/01/16 01:51:27;;;;;;;5.27;2.60;;;-7.30;99.90;;;;;;2204882;64;564769;-34
2022/01/16 01:53:56;;;;;;;8.00;2.07;;;-7.30;99.90;;;;;;2219914;64;20167;-44
2022/01/16 01:56:23;;;;;;;10.03;4.37;;;-7.30;99.90;;;;;;2213900;64;20168;-34
2022/01/16 01:58:54;;;;;;;8.97;3.23;;;-7.20;99.90;;;;;;2217131;64;20109;-34
2022/01/16 02:01:21;;;;;;;8.27;2.07;;;-7.20;99.90;;;;;;2217079;64;20475;-34
2022/01/16 02:03:49;;;;;;;4.63;2.03;;;-7.20;99.90;;;;;;2216900;64;20166;-45
2022/01/16 02:06:21;;;;;;;8.13;2.47;;;-7.20;99.90;;;;;;2216931;64;20449;-41
2022/01/16 02:08:52;;;;;;;9.70;2.20;;;-7.20;99.90;;;;;;2217237;64;20108;-34
2022/01/16 02:11:23;;;;;;;6.03;1.87;;;-7.20;99.90;;;;;;2217141;64;20472;-36
2022/01/16 02:33:23;;;;;;;7.57;2.17;;;-6.60;99.90;;;;;;2213186;64;20553;-34
2022/01/16 02:35:53;;;;;;;6.97;1.40;;;-6.50;99.90;;;;;;2210584;64;20092;-39
2022/01/16 02:38:21;;;;;;;3.70;1.80;;;-6.50;99.90;;;;;;2213039;64;20604;-39
2022/01/16 02:40:54;;;;;;;3.80;1.43;;;-6.50;99.90;;;;;;2213148;64;20558;-35
2022/01/16 02:43:29;;;;;;;8.33;2.20;;;-6.50;99.90;;;;;;2212893;64;20603;-36
2022/01/16 02:46:43;;;;;;;6.13;1.50;;;-6.50;99.90;;;;;;2213151;64;20089;-35
2022/01/16 02:48:46;;;;;;;6.57;1.60;;;-6.40;99.90;;;;;;2210009;64;20650;-34
2022/01/16 02:51:25;;;;;;;5.73;1.93;;;-6.40;99.90;;;;;;2213032;64;20089;-37
2022/01/16 02:53:52;;;;;;;4.27;1.13;;;-6.30;99.90;;;;;;2212798;64;20089;-36
2022/01/16 02:56:19;;;;;;;6.50;1.63;;;-6.30;99.90;;;;;;2213186;64;20592;-34
2022/01/16 02:58:46;;;;;;;5.83;2.17;;;-6.30;99.90;;;;;;2212925;64;20097;-34
2022/01/16 03:01:13;;;;;;;4.67;1.30;;;-6.30;99.90;;;;;;2213115;64;20167;-36
2022/01/16 03:03:40;;;;;;;6.27;1.60;;;-6.30;99.90;;;;;;2209854;64;20081;-35
2022/01/16 03:06:07;;;;;;;10.93;2.03;;;-6.30;99.90;;;;;;2212964;64;20100;-34
2022/01/16 03:08:34;;;;;;;4.80;1.47;;;-6.30;99.90;;;;;;2212847;64;20112;-33
2022/01/16 03:11:48;;;;;;;7.60;1.77;;;-6.20;99.90;;;;;;2212936;64;20097;-33
2022/01/16 03:13:49;;;;;;;3.40;1.17;;;-6.20;99.90;;;;;;2210606;64;20104;-35
2022/01/16 03:16:17;;;;;;;5.50;1.20;;;-6.20;99.90;;;;;;2213047;64;20093;-35
2022/01/16 03:24:14;;;;;;;3.78;1.10;;;-6.20;99.90;;;;;;2212779;64;20544;-34
2022/01/16 03:26:41;;;;;;;3.57;0.87;;;-6.20;99.90;;;;;;2219591;64;20100;-34
2022/01/16 03:29:08;;;;;;;3.70;1.43;;;-6.20;99.90;;;;;;2216673;64;20097;-34
2022/01/16 03:31:35;;;;;;;6.43;1.03;;;-6.20;99.90;;;;;;2213582;64;20104;-34
2022/01/16 03:34:02;;;;;;;4.43;1.00;;;-6.20;99.90;;;;;;2216898;64;20085;-34
2022/01/16 03:36:29;;;;;;;4.43;1.50;;;-6.20;99.90;;;;;;2213379;64;20103;-35
2022/01/16 03:38:56;;;;;;;3.33;1.10;;;-6.10;99.90;;;;;;2216661;64;20100;-33
2022/01/16 03:41:27;;;;;;;3.50;1.17;;;-6.10;99.90;;;;;;2216936;64;20548;-34
2022/01/16 03:44:02;;;;;;;3.73;0.60;;;-6.10;99.90;;;;;;2216830;64;20532;-44
2022/01/16 03:46:34;;;;;;;3.10;0.40;;;-6.10;99.90;;;;;;2216835;64;20140;-33
2022/01/16 03:49:03;;;;;;;1.50;0.50;;;-5.90;99.90;;;;;;2216867;64;20111;-36
2022/01/16 03:51:30;;;;;;;1.13;0.50;;;-5.80;99.90;;;;;;2216616;64;20233;-34
2022/01/16 03:54:00;;;;;;;0.60;0.33;;;-5.80;99.90;;;;;;2216730;64;20104;-33
2022/01/16 03:56:27;;;;;;;2.83;0.70;;;-5.80;99.90;;;;;;2216540;64;20468;-34
2022/01/16 03:58:54;;;;;;;0.63;0.40;;;-5.80;99.90;;;;;;2213473;64;20108;-34
2022/01/16 04:01:21;;;;;;;4.67;0.57;;;-5.80;99.90;;;;;;2216754;64;20108;-34
2022/01/16 04:03:48;;;;;;;0.83;0.30;;;-5.80;99.90;;;;;;2213390;64;20100;-34
2022/01/16 04:06:15;;;;;;;3.93;0.50;;;-5.70;99.90;;;;;;2216815;64;20630;-36
2022/01/16 04:08:42;;;;;;;1.40;0.27;;;-5.70;99.90;;;;;;2216578;64;20148;-34
2022/01/16 04:11:09;;;;;;;1.23;0.30;;;-5.70;99.90;;;;;;2216853;64;20093;-35
2022/01/16 04:13:40;;;;;;;1.37;0.40;;;-5.70;99.90;;;;;;2216451;64;20178;-34
2022/01/16 04:16:07;;;;;;;1.90;0.70;;;-5.70;99.90;;;;;;2216706;64;20166;-34
2022/01/16 04:18:33;;;;;;;0.70;0.40;;;-5.70;99.90;;;;;;2216566;64;20097;-36
2022/01/16 04:21:00;;;;;;;2.20;0.50;;;-5.70;99.90;;;;;;2216592;64;20556;-34
2022/01/16 04:23:27;;;;;;;0.60;0.40;;;-5.70;99.90;;;;;;2216718;64;20080;-34
2022/01/16 04:25:54;;;;;;;1.10;0.20;;;-5.70;99.90;;;;;;2214399;64;20593;-35
2022/01/16 04:28:25;;;;;;;1.30;0.40;;;-5.70;99.90;;;;;;2212968;64;20114;-35
2022/01/16 04:30:54;;;;;;;1.33;0.20;;;-5.70;99.90;;;;;;2212925;64;20101;-34
2022/01/16 04:33:21;;;;;;;0.70;0.20;;;-5.70;99.90;;;;;;2212824;64;20097;-35
2022/01/16 04:35:48;;;;;;;0.67;0.30;;;-5.70;99.90;;;;;;2212916;64;20170;-35
2022/01/16 04:38:14;;;;;;;3.40;0.20;;;-5.70;99.90;;;;;;2212659;64;20120;-34
2022/01/16 04:40:45;;;;;;;0.50;0.20;;;-5.70;99.90;;;;;;2212612;64;20093;-34
2022/01/16 04:46:00;;;;;;;0.83;0.30;;;-5.70;99.90;;;;;;2213273;64;20568;-36
2022/01/16 04:48:27;;;;;;;0.60;0.30;;;-5.70;99.90;;;;;;2213524;64;20104;-35
2022/01/16 04:50:54;;;;;;;1.07;0.40;;;-5.70;99.90;;;;;;2213368;64;20484;-35
2022/01/16 04:53:21;;;;;;;0.60;0.30;;;-5.70;99.90;;;;;;2213563;64;20553;-34
2022/01/16 04:55:48;;;;;;;0.50;0.23;;;-5.70;99.90;;;;;;2213353;64;20170;-35
2022/01/16 04:58:15;;;;;;;0.80;0.30;;;-5.70;99.90;;;;;;2213381;64;20127;-41
2022/01/16 05:00:42;;;;;;;0.80;0.30;;;-5.70;99.90;;;;;;2213240;64;20426;-36
2022/01/16 05:03:09;;;;;;;1.10;0.40;;;-5.70;99.90;;;;;;2213498;64;20081;-34
2022/01/16 05:05:36;;;;;;;0.80;0.30;;;-5.70;99.90;;;;;;2204388;64;20082;-35
2022/01/16 05:08:03;;;;;;;2.17;0.27;;;-5.70;99.90;;;;;;2204582;64;20108;-34
2022/01/16 05:10:31;;;;;;;2.60;0.40;;;-5.70;99.90;;;;;;2204489;64;20145;-37
2022/01/16 05:13:16;;;;;;;0.77;0.40;;;-5.70;99.90;;;;;;2201196;64;20124;-35
2022/01/16 05:18:28;;;;;;;0.60;0.40;;;-5.70;99.90;;;;;;2201266;64;20109;-36
2022/01/16 05:20:55;;;;;;;1.10;0.20;;;-5.60;99.90;;;;;;2204775;64;20168;-35
2022/01/16 05:23:22;;;;;;;0.40;0.20;;;-5.60;99.90;;;;;;2201405;64;20129;-34
2022/01/16 05:25:48;;;;;;;0.30;0.17;;;-5.60;99.90;;;;;;2206440;64;20108;-35
2022/01/16 05:28:15;;;;;;;0.90;0.50;;;-5.60;99.90;;;;;;2208538;64;20112;-36
2022/01/16 05:30:42;;;;;;;0.70;0.30;;;-5.60;99.90;;;;;;2208298;64;20101;-34
2022/01/16 05:33:09;;;;;;;0.70;0.43;;;-5.60;99.90;;;;;;2208460;64;20573;-35
2022/01/16 05:35:37;;;;;;;1.10;0.20;;;-5.50;99.90;;;;;;2208803;64;20091;-36
2022/01/16 05:38:03;;;;;;;1.63;0.70;;;-5.50;99.90;;;;;;2217136;64;20096;-35
2022/01/16 05:40:30;;;;;;;0.20;0.20;;;-5.50;99.90;;;;;;2216913;64;20104;-45
2022/01/16 05:42:58;;;;;;;0.43;0.20;;;-5.50;99.90;;;;;;2217310;64;20099;-35
2022/01/16 05:45:25;;;;;;;1.93;0.70;;;-5.50;99.90;;;;;;2213945;64;20112;-35
2022/01/16 05:47:52;;;;;;;2.80;0.70;;;-5.40;99.90;;;;;;2217256;64;20483;-34
2022/01/16 05:50:18;;;;;;;0.83;0.30;;;-5.40;99.90;;;;;;2216790;64;20198;-35
2022/01/16 05:52:46;;;;;;;1.50;0.40;;;-5.40;99.90;;;;;;2216824;64;20099;-35
2022/01/16 05:55:13;;;;;;;0.20;0.10;;;-5.40;99.90;;;;;;2217191;64;20101;-35
2022/01/16 05:57:39;;;;;;;1.10;0.37;;;-5.40;99.90;;;;;;2216865;64;20100;-37
2022/01/16 06:00:07;;;;;;;1.20;0.30;;;-5.40;99.90;;;;;;2217160;64;20413;-35
2022/01/16 06:02:34;;;;;;;1.43;0.60;;;-5.30;99.90;;;;;;2213778;64;20084;-35
2022/01/16 06:05:02;;;;;;;1.23;0.30;;;-5.30;99.90;;;;;;2217073;64;20123;-35
2022/01/16 06:07:28;;;;;;;0.67;0.37;;;-5.30;99.90;;;;;;2213883;64;20107;-35
2022/01/16 06:09:56;;;;;;;0.70;0.40;;;-5.30;99.90;;;;;;2216977;64;20518;-35
2022/01/16 06:12:22;;;;;;;0.83;0.37;;;-5.40;99.90;;;;;;2217029;64;20091;-38
2022/01/16 06:14:49;;;;;;;4.03;0.50;;;-5.30;99.90;;;;;;2217073;64;20135;-35
2022/01/16 06:17:16;;;;;;;1.30;0.40;;;-5.30;99.90;;;;;;2220107;64;20185;-35
2022/01/16 06:19:43;;;;;;;1.10;0.70;;;-5.30;99.90;;;;;;2216730;64;20080;-35
2022/01/16 06:22:10;;;;;;;1.77;0.40;;;-5.30;99.90;;;;;;2217075;64;20553;-36
2022/01/16 06:24:37;;;;;;;1.33;0.37;;;-5.30;99.90;;;;;;2216535;64;20202;-36
2022/01/16 06:27:04;;;;;;;1.33;0.30;;;-5.30;99.90;;;;;;2204332;64;20102;-36
2022/01/16 06:29:31;;;;;;;1.97;0.40;;;-5.20;99.90;;;;;;2201006;64;20098;-35
2022/01/16 06:31:58;;;;;;;1.20;0.40;;;-5.20;99.90;;;;;;2201149;64;20153;-36
2022/01/16 06:34:25;;;;;;;1.00;0.50;;;-5.10;99.90;;;;;;2207772;64;20180;-36
2022/01/16 06:36:51;;;;;;;0.73;0.30;;;-5.10;99.90;;;;;;2201250;64;20102;-36
2022/01/16 06:39:18;;;;;;;2.87;0.70;;;-5.10;99.90;;;;;;2201000;64;20104;-36
2022/01/16 06:41:45;;;;;;;0.53;0.20;;;-5.10;99.90;;;;;;2201292;64;20082;-36
2022/01/16 06:44:12;;;;;;;1.53;0.30;;;-5.00;99.90;;;;;;2207550;64;20107;-36
2022/01/16 06:46:39;;;;;;;1.47;0.30;;;-5.00;99.90;;;;;;2201334;64;20097;-35
2022/01/16 06:49:06;;;;;;;0.57;0.40;;;-5.00;99.90;;;;;;2201135;64;20562;-36
2022/01/16 06:51:33;;;;;;;1.47;0.23;;;-5.00;99.90;;;;;;2207357;64;20101;-36
2022/01/16 06:54:02;;;;;;;1.17;0.40;;;-5.00;99.90;;;;;;2207627;64;20086;-38
2022/01/16 06:56:29;;;;;;;1.87;0.30;;;-5.00;99.90;;;;;;2207459;64;20140;-38
2022/01/16 06:58:57;;;;;;;1.80;0.30;;;-5.00;99.90;;;;;;2207174;64;20098;-39
2022/01/16 07:01:25;;;;;;;1.77;0.60;;;-5.00;99.90;;;;;;2200782;64;20096;-36
2022/01/16 07:03:54;;;;;;;3.30;0.60;;;-5.00;99.90;;;;;;2209224;64;20115;-36
2022/01/16 07:06:21;;;;;;;0.60;0.30;;;-4.90;99.90;;;;;;2212896;64;20167;-36
2022/01/16 07:08:47;;;;;;;2.73;0.50;;;-4.90;99.90;;;;;;2212695;64;20108;-36
2022/01/16 07:11:15;;;;;;;1.97;0.30;;;-4.90;99.90;;;;;;2212890;64;20583;-36
2022/01/16 07:13:42;;;;;;;1.03;0.50;;;-4.80;99.90;;;;;;2209709;64;20093;-36
2022/01/16 07:16:09;;;;;;;0.93;0.47;;;-4.80;99.90;;;;;;2212753;64;20170;-35
2022/01/16 07:18:36;;;;;;;5.07;0.67;;;-4.70;99.90;;;;;;2216144;64;20107;-37
2022/01/16 07:21:05;;;;;;;1.30;0.50;;;-4.70;99.90;;;;;;2215968;64;20469;-35
2022/01/16 07:23:32;;;;;;;1.30;0.30;;;-4.60;99.90;;;;;;2212548;64;20127;-36
2022/01/16 07:25:58;;;;;;;0.63;0.60;;;-4.60;99.90;;;;;;2215336;64;20096;-35
2022/01/16 07:28:25;;;;;;;1.13;0.30;;;-4.50;99.90;;;;;;2216766;64;20169;-35
2022/01/16 07:30:52;;;;;;;2.23;0.47;;;-4.50;99.90;;;;;;2216620;64;20625;-36
2022/01/16 07:33:19;;;;;;;1.40;0.30;;;-4.50;99.90;;;;;;2216835;64;20563;-36
2022/01/16 07:35:46;;;;;;;0.30;0.20;;;-4.30;99.90;;;;;;2216876;64;20084;-36
2022/01/16 07:38:16;;;;;;;3.00;0.47;;;-4.30;99.90;;;;;;2216690;64;20449;-35
2022/01/16 07:40:43;;;;;;;0.50;0.30;;;-4.20;99.90;;;;;;2216705;64;20073;-34
2022/01/16 07:43:10;;;;;;;1.30;0.30;;;-4.20;99.90;;;;;;2216534;64;20476;-35
2022/01/16 07:45:37;;;;;;;1.90;0.43;;;-4.10;99.90;;;;;;2216801;64;20081;-36
2022/01/16 07:48:07;;;;;;;2.00;0.50;;;-4.00;99.90;;;;;;2216689;64;20606;-37
2022/01/16 07:50:35;;;;;;;0.80;0.40;;;-3.90;99.90;;;;;;2213519;64;20089;-36
2022/01/16 07:53:02;;;;;;;0.77;0.20;;;-3.80;99.90;;;;;;2216551;64;20111;-36
2022/01/16 07:55:29;;;;;;;1.17;0.40;;;-3.70;99.90;;;;;;2209224;64;20169;-36
2022/01/16 07:57:56;;;;;;;1.03;0.50;;;-3.70;99.90;;;;;;2216557;64;20480;-36
2022/01/16 08:00:24;;;;;;;1.70;0.17;;;-3.60;99.90;;;;;;2216578;64;20142;-35
2022/01/16 08:02:51;;;;;;;2.10;0.40;;;-3.40;99.90;;;;;;2216559;64;20077;-36
2022/01/16 08:05:18;;;;;;;0.47;0.20;;;-3.50;99.90;;;;;;2216617;64;20088;-37
2022/01/16 08:07:45;;;;;;;1.00;0.40;;;-3.80;99.90;;;;;;2216722;64;20181;-36
2022/01/16 08:10:12;;;;;;;1.60;0.40;;;-3.90;99.90;;;;;;2216532;64;20084;-38
2022/01/16 08:12:39;;;;;;;0.10;0.10;;;-4.00;99.90;;;;;;2216620;64;20100;-38
2022/01/16 08:15:07;;;;;;;0.50;0.37;;;-3.80;99.90;;;;;;2213275;64;20077;-35
2022/01/16 08:17:36;;;;;;;0.70;0.30;;;-3.70;99.90;;;;;;2217108;64;20560;-36
2022/01/16 08:20:04;;;;;;;2.03;0.20;;;-3.80;99.90;;;;;;2217063;64;20100;-37
2022/01/16 08:22:31;;;;;;;0.70;0.30;;;-4.00;99.90;;;;;;2217285;64;20178;-35
2022/01/16 08:24:58;;;;;;;1.90;0.30;;;-4.00;99.90;;;;;;2216056;64;20095;-37
2022/01/16 08:27:25;;;;;;;0.93;0.20;;;-3.80;99.90;;;;;;2210301;64;20100;-39
2022/01/16 08:29:52;;;;;;;1.00;0.40;;;-3.80;99.90;;;;;;2213254;64;20144;-35
2022/01/16 08:32:18;;;;;;;1.13;0.40;;;-3.90;99.90;;;;;;2213522;64;20085;-35
2022/01/16 08:34:45;;;;;;;0.57;0.30;;;-3.80;99.90;;;;;;2213221;64;20085;-36
2022/01/16 08:37:12;;;;;;;0.50;0.20;;;-3.60;99.90;;;;;;2213413;64;20596;-35
2022/01/16 08:39:39;;;;;;;0.70;0.30;;;-3.50;99.90;;;;;;2213254;64;20553;-33
2022/01/16 08:42:06;;;;;;;0.93;0.30;;;-3.50;99.90;;;;;;2213507;64;20081;-35
2022/01/16 08:44:33;;;;;;;1.33;0.40;;;-3.60;99.90;;;;;;2213294;64;20140;-34
2022/01/16 08:47:00;;;;;;;6.57;0.90;;;-3.30;99.90;;;;;;2213407;64;20549;-35
2022/01/16 08:49:27;;;;;;;1.37;0.50;;;-3.30;99.90;;;;;;2213469;64;20116;-36
2022/01/16 08:51:55;;;;;;;0.93;0.40;;;-3.30;99.90;;;;;;2209904;64;20099;-37
2022/01/16 08:54:22;;;;;;;2.17;0.30;;;-3.40;99.90;;;;;;2216653;64;20088;-38
2022/01/16 08:56:49;;;;;;;1.17;0.40;;;-3.30;99.90;;;;;;2213246;64;20148;-39
2022/01/16 08:59:16;;;;;;;0.70;0.30;;;-3.20;99.90;;;;;;2213224;64;20557;-38
2022/01/16 09:01:42;;;;;;;1.57;0.53;;;-3.30;99.90;;;;;;2213318;64;20093;-39
2022/01/16 09:04:09;;;;;;;1.47;0.40;;;-3.30;99.90;;;;;;2213453;64;20097;-36
2022/01/16 09:06:36;;;;;;;0.73;0.20;;;-3.40;99.90;;;;;;2213262;64;20085;-39
2022/01/16 09:09:03;;;;;;;5.23;0.67;;;-3.50;99.90;;;;;;2213194;64;20097;-37
2022/01/16 09:11:30;;;;;;;2.43;0.50;;;-3.40;99.90;;;;;;2213147;64;20104;-39
2022/01/16 09:13:58;;;;;;;0.90;0.40;;;-3.10;99.90;;;;;;2212998;64;20461;-39
2022/01/16 09:16:25;;;;;;;0.77;0.40;;;-3.20;99.90;;;;;;2216432;64;20112;-38
2022/01/16 09:18:52;;;;;;;1.37;0.20;;;-3.30;99.90;;;;;;2210045;64;20093;-38
2022/01/16 09:21:19;;;;;;;0.27;0.23;;;-3.20;99.90;;;;;;2212897;64;20089;-39
2022/01/16 09:23:46;;;;;;;0.70;0.30;;;-3.40;99.90;;;;;;2210073;64;20088;-39
2022/01/16 09:26:13;;;;;;;1.20;0.50;;;-3.30;99.90;;;;;;2215830;64;20112;-42
2022/01/16 09:28:43;;;;;;;0.50;0.30;;;-3.20;99.90;;;;;;2216886;64;20096;-39
2022/01/16 09:31:10;;;;;;;0.70;0.40;;;-3.20;99.90;;;;;;2217216;64;20080;-39
2022/01/16 09:33:37;;;;;;;1.67;0.33;;;-3.40;99.90;;;;;;2216940;64;20111;-40
2022/01/16 09:36:05;;;;;;;0.70;0.30;;;-3.30;99.90;;;;;;2216982;64;20152;-39
2022/01/16 09:38:32;;;;;;;0.30;0.10;;;-3.20;99.90;;;;;;2216993;64;20099;-40
2022/01/16 09:40:59;;;;;;;1.90;0.50;;;-3.40;99.90;;;;;;2216890;64;20094;-40
2022/01/16 09:43:26;;;;;;;1.10;0.77;;;-3.30;99.90;;;;;;2216967;64;20579;-40
2022/01/16 09:45:53;;;;;;;4.50;0.60;;;-3.30;99.90;;;;;;2213816;64;20084;-38
2022/01/16 09:48:20;;;;;;;0.87;0.30;;;-3.30;99.90;;;;;;2216910;64;20168;-38
2022/01/16 09:50:47;;;;;;;0.70;0.27;;;-3.30;99.90;;;;;;2216894;64;20093;-38
2022/01/16 09:53:14;;;;;;;0.30;0.20;;;-3.40;99.90;;;;;;2213695;64;20622;-39
2022/01/16 09:55:41;;;;;;;0.53;0.30;;;-3.30;99.90;;;;;;2216902;64;20093;-38
2022/01/16 09:58:08;;;;;;;1.13;0.30;;;-3.20;99.90;;;;;;2216842;64;20096;-39
2022/01/16 10:00:35;;;;;;;0.90;0.50;;;-3.00;99.90;;;;;;2216862;64;20091;-38
2022/01/16 10:03:03;;;;;;;1.20;0.40;;;-3.10;99.90;;;;;;2217000;64;20096;-39
2022/01/16 10:05:37;;;;;;;1.03;0.30;;;-3.10;99.90;;;;;;2220104;64;20530;-37
2022/01/16 10:08:05;;;;;;;1.80;0.33;;;-3.10;99.90;;;;;;2213983;64;20480;-37
2022/01/16 10:10:37;;;;;;;1.00;0.40;;;-3.00;99.90;;;;;;2210592;64;20127;-37
2022/01/16 10:13:41;;;;;;;0.70;0.30;;;-3.30;99.90;;;;;;2217062;64;20114;-39
2022/01/16 10:16:08;;;;;;;1.57;0.40;;;-3.40;99.90;;;;;;2216909;64;20084;-38
2022/01/16 10:18:41;;;;;;;0.80;0.30;;;-3.40;99.90;;;;;;2216807;64;20108;-36
2022/01/16 10:21:08;;;;;;;1.10;0.30;;;-3.10;99.90;;;;;;2216958;64;20096;-38
2022/01/16 10:23:40;;;;;;;0.80;0.23;;;-3.00;99.90;;;;;;2216650;64;20081;-38
2022/01/16 10:26:17;;;;;;;4.27;0.30;;;-3.00;99.90;;;;;;2214273;64;20088;-38
2022/01/16 10:28:44;;;;;;;0.83;0.23;;;-3.10;99.90;;;;;;2212870;64;20156;-39
2022/01/16 10:31:19;;;;;;;0.80;0.30;;;-3.20;99.90;;;;;;2209725;64;20085;-37
2022/01/16 10:33:46;;;;;;;;;;;-3.40;99.90;;;;;;2213420;64;20162;-38
2022/01/16 10:36:13;;;;;;;1.37;0.40;;;-3.20;99.90;;;;;;2208085;64;20079;-37
2022/01/16 10:38:40;;;;;;;4.27;0.57;;;-3.10;99.90;;;;;;2207718;64;20671;-36
2022/01/16 10:41:06;;;;;;;0.50;0.30;;;-3.20;99.90;;;;;;2208006;64;20085;-38
2022/01/16 10:43:40;;;;;;;0.83;0.60;;;-3.20;99.90;;;;;;2201491;64;20204;-36
2022/01/16 10:46:07;;;;;;;0.70;0.40;;;-3.20;99.90;;;;;;2204805;64;20108;-37
2022/01/16 10:48:37;;;;;;;0.80;0.40;;;-3.20;99.90;;;;;;2202084;64;20214;-38
2022/01/16 10:51:04;;;;;;;2.43;0.47;;;-3.30;99.90;;;;;;2209261;64;20171;-37
2022/01/16 10:53:32;;;;;;;2.67;0.43;;;-3.30;99.90;;;;;;2208093;64;20168;-38
2022/01/16 10:56:02;;;;;;;2.77;0.40;;;-3.20;99.90;;;;;;2204712;64;20093;-38
2022/01/16 10:58:45;;;;;;;0.70;0.40;;;-3.10;99.90;;;;;;2211049;64;20085;-37
2022/01/16 11:01:14;;;;;;;0.83;0.40;;;-3.10;99.90;;;;;;2204741;64;20116;-40
2022/01/16 11:03:49;;;;;;;2.37;0.43;;;-3.20;99.90;;;;;;2204709;64;20089;-38
2022/01/16 11:06:21;;;;;;;1.25;0.50;;;-3.30;99.90;;;;;;2205084;64;20143;-41
2022/01/16 11:08:56;;;;;;;1.00;0.20;;;-3.30;99.90;;;;;;2209040;64;20112;-38
2022/01/16 11:11:26;;;;;;;1.77;0.40;;;-3.40;99.90;;;;;;2205728;64;20168;-36
2022/01/16 11:13:54;;;;;;;1.13;0.43;;;-3.50;99.90;;;;;;2208994;64;20188;-36
2022/01/16 11:16:21;;;;;;;0.40;0.23;;;-3.50;99.90;;;;;;2208932;64;20132;-37
2022/01/16 11:18:49;;;;;;;0.63;0.30;;;-3.60;99.90;;;;;;2208791;64;20097;-39
2022/01/16 11:21:27;;;;;;;3.53;0.50;;;-3.70;99.90;;;;;;2206237;64;20093;-38
2022/01/16 11:26:22;;;;;;;0.60;0.40;;;-3.60;99.90;;;;;;2208880;64;20089;-39
2022/01/16 11:28:55;;;;;;;0.50;0.30;;;-3.60;99.90;;;;;;2212628;64;20097;-37
2022/01/16 11:31:23;;;;;;;1.20;0.30;;;-3.70;99.90;;;;;;2209676;64;20634;-37
2022/01/16 11:33:50;;;;;;;0.60;0.40;;;-3.50;99.90;;;;;;2212821;64;20101;-37
2022/01/16 11:36:23;;;;;;;0.97;0.53;;;-3.80;99.90;;;;;;2212695;64;20096;-39
2022/01/16 11:38:55;;;;;;;0.20;0.20;;;-3.80;99.90;;;;;;2212939;64;20093;-36
2022/01/16 11:41:26;;;;;;;1.40;0.47;;;-3.90;99.90;;;;;;2212780;64;20523;-40
2022/01/16 11:43:53;;;;;;;3.27;0.40;;;-3.80;99.90;;;;;;2212740;64;20185;-37
2022/01/16 11:46:21;;;;;;;2.70;0.40;;;-3.90;99.90;;;;;;2212801;64;20111;-38
2022/01/16 11:48:56;;;;;;;3.57;0.50;;;-3.80;99.90;;;;;;2212683;64;20223;-38
2022/01/16 11:51:35;;;;;;;;;;;-3.70;99.90;;;;;;2216023;64;20108;-39
2022/01/16 11:54:09;;;;;;;1.63;0.30;;;-3.70;99.90;;;;;;2217040;64;20428;-38
2022/01/16 11:56:39;;;;;;;1.43;0.63;;;-3.80;99.90;;;;;;2217180;64;20093;-38
2022/01/16 11:59:14;;;;;;;0.63;0.30;;;-4.00;99.90;;;;;;2217099;64;20115;-37
2022/01/16 12:01:45;;;;;;;1.30;0.40;;;-4.00;99.90;;;;;;2217163;64;20619;-38
2022/01/16 12:04:30;;;;;;;1.77;0.60;;;-4.00;99.90;;;;;;2217206;64;20184;-42
2022/01/16 12:07:00;;;;;;;1.27;0.45;;;-4.10;99.90;;;;;;2217256;64;20081;-39
2022/01/16 12:09:47;;;;;;;2.03;0.90;;;-4.10;99.90;;;;;;2217331;64;20092;-39
2022/01/16 12:12:14;;;;;;;1.07;0.50;;;-4.10;99.90;;;;;;2217182;64;20130;-37
2022/01/16 12:15:13;;;;;;;3.27;0.67;;;-4.10;99.90;;;;;;2217146;64;20096;-39
2022/01/16 12:17:42;;;;;;;3.93;0.90;;;-4.20;99.90;;;;;;2217016;64;20108;-38
2022/01/16 12:20:22;;;;;;;2.70;0.83;;;-4.10;99.90;;;;;;2217208;64;20100;-38
2022/01/16 12:23:04;;;;;;;1.23;0.60;;;-4.20;99.90;;;;;;2217374;64;20076;-39
2022/01/16 12:25:41;;;;;;;3.87;1.20;;;-4.30;99.90;;;;;;2215404;64;20101;-37
2022/01/16 12:28:10;;;;;;;3.50;1.10;;;-4.30;99.90;;;;;;2213387;64;20531;-38
2022/01/16 12:30:55;;;;;;;3.90;0.77;;;-4.40;99.90;;;;;;2213149;64;20105;-37
2022/01/16 12:33:50;;;;;;;2.60;0.57;;;-4.50;99.90;;;;;;2213591;64;20108;-37
2022/01/16 12:36:19;;;;;;;3.58;1.15;;;-4.50;99.90;;;;;;2213490;64;20085;-37
2022/01/16 12:38:54;;;;;;;4.73;1.07;;;-4.50;99.90;;;;;;2213224;64;20105;-37
2022/01/16 12:41:30;;;;;;;3.00;1.20;;;-4.60;99.90;;;;;;2213556;64;20089;-39
2022/01/16 12:44:11;;;;;;;4.93;1.00;;;-4.60;99.90;;;;;;2213427;64;20140;-36
2022/01/16 12:46:42;;;;;;;4.23;0.80;;;-4.60;99.90;;;;;;2213365;64;20210;-37
2022/01/16 12:49:17;;;;;;;3.27;1.03;;;-4.60;99.90;;;;;;2213264;64;20089;-36
2022/01/16 12:51:46;;;;;;;3.65;1.00;;;-4.60;99.90;;;;;;2213134;64;20103;-37
2022/01/16 12:54:20;;;;;;;3.33;1.00;;;-4.60;99.90;;;;;;2213172;64;20108;-38
2022/01/16 12:56:48;;;;;;;2.50;1.13;;;-4.60;99.90;;;;;;2213272;64;20085;-37
2022/01/16 12:59:22;;;;;;;3.03;0.70;;;-4.60;99.90;;;;;;2213145;64;20194;-39
2022/01/16 13:01:54;;;;;;;2.10;1.10;;;-4.60;99.90;;;;;;2213194;64;20465;-39
2022/01/16 13:04:28;;;;;;;2.83;0.90;;;-4.70;99.90;;;;;;2213344;64;20561;-36
2022/01/16 13:06:55;;;;;;;3.53;0.73;;;-4.80;99.90;;;;;;2213375;64;20093;-38
2022/01/16 13:09:22;;;;;;;3.03;0.93;;;-4.80;99.90;;;;;;2213390;64;20148;-37
2022/01/16 13:11:54;;;;;;;2.57;0.93;;;-4.80;99.90;;;;;;2213289;64;20077;-37
2022/01/16 13:14:25;;;;;;;1.60;0.83;;;-4.80;99.90;;;;;;2210119;64;20132;-39
2022/01/16 13:16:54;;;;;;;3.40;1.23;;;-4.80;99.90;;;;;;2213328;64;20168;-36
2022/01/16 13:19:26;;;;;;;2.10;0.70;;;-4.80;99.90;;;;;;2213203;64;20491;-38
2022/01/16 13:22:12;;;;;;;5.93;1.23;;;-4.80;99.90;;;;;;2212989;64;20093;-42
2022/01/16 13:24:47;;;;;;;2.67;0.77;;;-4.80;99.90;;;;;;2213553;64;20434;-37
2022/01/16 13:27:15;;;;;;;;;;;-4.80;99.90;;;;;;2216888;64;20096;-36
2022/01/16 13:29:47;;;;;;;7.43;1.33;;;-4.70;99.90;;;;;;2213838;64;20048;-37
2022/01/16 13:32:15;;;;;;;2.20;0.87;;;-4.70;99.90;;;;;;2217093;64;20116;-38
2022/01/16 13:34:49;;;;;;;4.93;1.00;;;-4.80;99.90;;;;;;2216913;64;20089;-38
2022/01/16 13:37:19;;;;;;;3.58;0.88;;;-4.70;99.90;;;;;;2220168;64;20098;-38
2022/01/16 13:39:48;;;;;;;6.07;0.83;;;-4.70;99.90;;;;;;2216687;64;20093;-38
2022/01/16 13:42:21;;;;;;;2.60;0.60;;;-4.70;99.90;;;;;;2217126;64;20590;-38